Time;durP1;ratioP1;P1;durP2;ratioP2;P2;SDS_P1;SDS_P2;PMS_P1;PMS_P2;Temp;Humidity;BMP_temperature;BMP_pressure;BME280_temperature;BME280_humidity;BME280_pressure;Samples;Min_cycle;Max_cycle;Signal;HPM_P1;HPM_P2
2024/02/20 00:00:44;;;;;;;71.60;10.60;;;6.40;99.90;;;;;;5061735;28;20427;-74
2024/02/20 00:03:10;;;;;;;61.50;10.63;;;6.30;99.90;;;;;;5067828;28;20039;-74
2024/02/20 00:05:36;;;;;;;49.78;10.15;;;6.30;99.90;;;;;;5050190;28;20050;-74
2024/02/20 00:08:05;;;;;;;58.78;10.57;;;6.30;99.90;;;;;;5054908;28;20118;-74
2024/02/20 00:10:31;;;;;;;62.20;11.38;;;6.30;99.90;;;;;;5062460;28;20416;-74
2024/02/20 00:12:57;;;;;;;57.60;9.73;;;6.20;99.90;;;;;;5056458;28;20044;-74
2024/02/20 00:15:23;;;;;;;50.10;9.77;;;6.20;99.90;;;;;;5045644;28;20060;-73
2024/02/20 00:17:49;;;;;;;61.67;11.73;;;6.20;99.90;;;;;;5072831;28;20040;-74
2024/02/20 00:20:15;;;;;;;56.17;10.23;;;6.10;99.90;;;;;;5066073;28;20159;-74
2024/02/20 00:22:41;;;;;;;52.95;10.00;;;6.20;99.90;;;;;;5063266;28;20039;-74
2024/02/20 00:25:07;;;;;;;65.03;11.77;;;6.20;99.90;;;;;;5069105;28;20048;-74
2024/02/20 00:27:36;;;;;;;66.13;10.18;;;6.10;99.90;;;;;;5051811;28;20484;-73
2024/02/20 00:30:05;;;;;;;48.67;9.13;;;6.10;99.90;;;;;;5045539;28;20051;-74
2024/02/20 00:32:31;;;;;;;71.07;11.68;;;6.10;99.90;;;;;;5049896;28;20040;-74
2024/02/20 00:34:57;;;;;;;64.45;11.07;;;6.10;99.90;;;;;;5048828;28;20078;-73
2024/02/20 00:37:23;;;;;;;59.97;11.77;;;6.10;99.90;;;;;;5048266;28;20119;-73
2024/02/20 00:39:49;;;;;;;57.38;10.60;;;6.10;99.90;;;;;;5063126;28;20497;-74
2024/02/20 00:42:14;;;;;;;73.32;11.85;;;6.10;99.90;;;;;;5064080;28;20050;-73
2024/02/20 00:44:40;;;;;;;58.58;10.15;;;6.10;99.90;;;;;;5066173;28;20043;-74
2024/02/20 00:47:09;;;;;;;66.70;11.68;;;6.10;99.90;;;;;;5064633;28;20131;-73
2024/02/20 00:49:39;;;;;;;70.95;12.38;;;6.10;99.90;;;;;;5079486;28;20058;-74
2024/02/20 00:52:05;;;;;;;66.60;12.45;;;6.10;99.90;;;;;;5059848;28;20040;-73
2024/02/20 00:54:31;;;;;;;60.72;11.45;;;6.10;99.90;;;;;;5061088;28;20040;-73
2024/02/20 00:57:01;;;;;;;57.13;10.65;;;6.10;99.90;;;;;;5061852;28;20047;-74
2024/02/20 00:59:26;;;;;;;49.15;10.90;;;6.20;99.90;;;;;;5045030;28;20047;-74
2024/02/20 01:01:52;;;;;;;56.05;10.70;;;6.10;99.90;;;;;;5047903;28;20036;-76
2024/02/20 01:04:18;;;;;;;72.78;12.75;;;6.10;99.90;;;;;;5052567;28;20050;-74
2024/02/20 01:06:44;;;;;;;62.20;11.50;;;6.10;99.90;;;;;;5041496;28;20115;-74
2024/02/20 01:09:11;;;;;;;58.25;10.82;;;6.10;99.90;;;;;;5044744;28;20396;-74
2024/02/20 01:11:37;;;;;;;63.95;12.82;;;6.10;99.90;;;;;;5062787;28;20044;-74
2024/02/20 01:14:03;;;;;;;65.35;11.23;;;6.20;99.90;;;;;;5064766;28;20093;-73
2024/02/20 01:16:28;;;;;;;54.17;10.38;;;6.10;99.90;;;;;;5047714;28;20497;-74
2024/02/20 01:18:54;;;;;;;57.60;11.82;;;6.10;99.90;;;;;;5056006;28;20074;-74
2024/02/20 01:21:20;;;;;;;54.08;11.27;;;6.10;99.90;;;;;;5048771;28;20142;-74
2024/02/20 01:23:46;;;;;;;52.55;10.38;;;6.10;99.90;;;;;;5044484;28;20036;-73
2024/02/20 01:26:11;;;;;;;64.50;11.93;;;6.10;99.90;;;;;;5066607;28;20036;-74
2024/02/20 01:28:37;;;;;;;55.83;11.25;;;6.20;99.90;;;;;;5049757;28;20468;-74
2024/02/20 01:31:03;;;;;;;55.90;10.27;;;6.10;99.90;;;;;;5064481;28;20443;-74
2024/02/20 01:33:29;;;;;;;56.13;11.07;;;6.10;99.90;;;;;;5063607;28;20043;-74
2024/02/20 01:35:55;;;;;;;63.95;12.40;;;6.10;99.90;;;;;;5051093;28;20069;-74
2024/02/20 01:38:21;;;;;;;51.28;10.73;;;6.10;99.90;;;;;;5045308;28;20036;-74
2024/02/20 01:40:46;;;;;;;67.78;11.80;;;6.10;99.90;;;;;;5064934;28;20048;-74
2024/02/20 01:43:14;;;;;;;52.25;10.02;;;6.10;99.90;;;;;;5053113;28;20046;-74
2024/02/20 01:45:40;;;;;;;55.72;10.20;;;6.10;99.90;;;;;;5059321;28;20118;-74
2024/02/20 01:48:07;;;;;;;48.47;9.27;;;6.20;99.90;;;;;;5067746;28;20119;-74
2024/02/20 01:50:36;;;;;;;60.22;10.43;;;6.10;99.90;;;;;;5060142;28;20798;-73
2024/02/20 01:53:03;;;;;;;56.45;10.80;;;6.10;99.90;;;;;;5047596;28;20480;-74
2024/02/20 01:55:33;;;;;;;52.92;9.50;;;6.10;99.90;;;;;;5066242;28;20148;-74
2024/02/20 01:57:58;;;;;;;45.08;9.65;;;6.10;99.90;;;;;;5070367;28;20051;-75
2024/02/20 02:00:24;;;;;;;49.42;9.20;;;6.20;99.90;;;;;;5067433;28;20058;-74
2024/02/20 02:02:51;;;;;;;53.85;10.68;;;6.20;99.90;;;;;;5060604;28;20075;-75
2024/02/20 02:05:18;;;;;;;59.92;10.45;;;6.20;99.90;;;;;;5043314;28;20048;-75
2024/02/20 02:07:43;;;;;;;50.55;9.18;;;6.20;99.90;;;;;;5060763;28;20036;-75
2024/02/20 02:10:09;;;;;;;49.40;9.50;;;6.20;99.90;;;;;;5047128;28;20040;-75
2024/02/20 02:12:35;;;;;;;50.75;9.50;;;6.20;99.90;;;;;;5062921;28;20067;-75
2024/02/20 02:15:01;;;;;;;60.50;10.05;;;6.20;99.90;;;;;;5076400;28;20046;-75
2024/02/20 02:17:27;;;;;;;54.90;9.45;;;6.20;99.90;;;;;;5050739;28;20465;-75
2024/02/20 02:19:53;;;;;;;52.55;9.55;;;6.20;99.90;;;;;;5044534;28;20143;-75
2024/02/20 02:22:18;;;;;;;51.63;9.27;;;6.20;99.90;;;;;;5055300;28;20051;-75
2024/02/20 02:24:44;;;;;;;45.67;8.50;;;6.10;99.90;;;;;;5059336;28;20040;-74
2024/02/20 02:27:10;;;;;;;55.63;9.30;;;6.20;99.90;;;;;;5058018;28;20173;-75
2024/02/20 02:29:35;;;;;;;61.42;10.27;;;6.20;99.90;;;;;;5047619;28;20068;-75
2024/02/20 02:32:02;;;;;;;54.20;9.75;;;6.20;99.90;;;;;;5056139;28;20060;-74
2024/02/20 02:34:29;;;;;;;57.00;9.45;;;6.20;99.90;;;;;;5058349;28;20047;-75
2024/02/20 02:36:56;;;;;;;64.50;10.60;;;6.10;99.90;;;;;;5028814;28;20766;-74
2024/02/20 02:39:23;;;;;;;58.00;9.63;;;6.20;99.90;;;;;;5036938;28;20346;-75
2024/02/20 02:41:50;;;;;;;45.35;9.05;;;6.20;99.90;;;;;;5036517;28;20083;-75
2024/02/20 02:44:16;;;;;;;50.70;8.05;;;6.20;99.90;;;;;;5065900;28;20048;-75
2024/02/20 02:46:42;;;;;;;50.20;9.02;;;6.20;99.90;;;;;;5048370;28;20389;-75
2024/02/20 02:49:07;;;;;;;52.58;8.15;;;6.20;99.90;;;;;;5046789;28;20082;-75
2024/02/20 02:51:34;;;;;;;50.95;8.20;;;6.20;99.90;;;;;;5066791;28;20082;-75
2024/02/20 02:54:00;;;;;;;53.75;9.98;;;6.10;99.90;;;;;;5048431;28;20048;-75
2024/02/20 02:56:28;;;;;;;44.17;8.55;;;6.20;99.90;;;;;;5055067;28;20562;-74
2024/02/20 02:58:59;;;;;;;59.53;9.38;;;6.20;99.90;;;;;;5066406;28;21859;-75
2024/02/20 03:01:25;;;;;;;49.45;8.50;;;6.10;99.90;;;;;;5052850;28;20048;-73
2024/02/20 03:03:51;;;;;;;44.67;8.20;;;6.10;99.90;;;;;;5060632;28;20123;-73
2024/02/20 03:06:18;;;;;;;50.35;8.63;;;6.10;99.90;;;;;;5063160;28;20299;-73
2024/02/20 03:08:45;;;;;;;50.03;8.60;;;6.10;99.90;;;;;;5055991;28;20044;-73
2024/02/20 03:11:16;;;;;;;48.38;9.45;;;6.10;99.90;;;;;;5063752;28;20039;-73
2024/02/20 03:13:41;;;;;;;50.42;8.65;;;6.10;99.90;;;;;;5041975;28;20882;-73
2024/02/20 03:16:07;;;;;;;53.03;8.20;;;6.10;99.90;;;;;;5064541;28;20120;-73
2024/02/20 03:18:36;;;;;;;48.63;8.55;;;6.10;99.90;;;;;;5048667;28;20043;-73
2024/02/20 03:21:02;;;;;;;53.72;8.98;;;6.10;99.90;;;;;;5049856;28;20156;-73
2024/02/20 03:23:30;;;;;;;49.70;8.07;;;6.00;99.90;;;;;;5065406;28;20416;-73
2024/02/20 03:25:57;;;;;;;38.58;7.68;;;6.00;99.90;;;;;;5050365;28;20151;-73
2024/02/20 03:28:24;;;;;;;40.40;7.65;;;6.00;99.90;;;;;;5064082;28;20044;-72
2024/02/20 03:30:54;;;;;;;49.28;8.13;;;6.00;99.90;;;;;;5047236;28;20048;-73
2024/02/20 03:33:21;;;;;;;50.72;7.90;;;5.90;99.90;;;;;;5069736;28;20048;-73
2024/02/20 03:35:47;;;;;;;54.33;8.85;;;5.90;99.90;;;;;;5063546;28;20115;-73
2024/02/20 03:38:13;;;;;;;45.25;8.77;;;5.90;99.90;;;;;;5049853;28;20511;-73
2024/02/20 03:40:39;;;;;;;47.20;7.70;;;5.90;99.90;;;;;;5050522;28;20032;-74
2024/02/20 03:43:05;;;;;;;52.08;7.97;;;5.90;99.90;;;;;;5058038;28;20036;-73
2024/02/20 03:45:31;;;;;;;48.58;9.38;;;5.90;99.90;;;;;;5053024;28;20043;-73
2024/02/20 03:47:57;;;;;;;44.92;8.10;;;5.90;99.90;;;;;;5063722;28;20044;-73
2024/02/20 03:50:23;;;;;;;45.55;8.60;;;5.90;99.90;;;;;;5050664;28;20401;-73
2024/02/20 03:52:49;;;;;;;50.90;9.00;;;5.90;99.90;;;;;;5048292;28;20045;-74
2024/02/20 03:55:15;;;;;;;42.70;8.05;;;5.80;99.90;;;;;;5072574;28;20047;-73
2024/02/20 03:57:41;;;;;;;48.20;8.13;;;5.80;99.90;;;;;;5077232;28;20048;-73
2024/02/20 04:00:11;;;;;;;59.92;9.00;;;5.80;99.90;;;;;;5062434;28;20050;-74
2024/02/20 04:02:43;;;;;;;53.78;8.82;;;5.70;99.90;;;;;;5052940;28;20126;-74
2024/02/20 04:05:12;;;;;;;60.50;8.45;;;5.70;99.90;;;;;;5050551;28;20056;-74
2024/02/20 04:07:44;;;;;;;46.03;8.38;;;5.70;99.90;;;;;;5057336;28;20032;-74
2024/02/20 04:10:11;;;;;;;51.88;7.82;;;5.70;99.90;;;;;;5054082;28;20127;-74
2024/02/20 04:12:37;;;;;;;52.50;8.55;;;5.60;99.90;;;;;;5055190;28;21223;-74
2024/02/20 04:15:13;;;;;;;42.20;7.13;;;5.60;99.90;;;;;;5058152;28;20052;-74
2024/02/20 04:17:39;;;;;;;43.22;7.38;;;5.60;99.90;;;;;;5061418;28;20131;-74
2024/02/20 04:20:07;;;;;;;53.05;8.07;;;5.60;99.90;;;;;;5065009;28;20418;-74
2024/02/20 04:22:33;;;;;;;57.30;8.40;;;5.60;99.90;;;;;;5050879;28;20175;-74
2024/02/20 04:25:02;;;;;;;52.85;7.88;;;5.50;99.90;;;;;;5047488;28;20063;-73
2024/02/20 04:27:29;;;;;;;54.05;8.07;;;5.50;99.90;;;;;;5068621;28;20044;-74
2024/02/20 04:29:55;;;;;;;51.97;8.43;;;5.50;99.90;;;;;;5052608;28;20102;-73
2024/02/20 04:32:39;;;;;;;50.75;9.95;;;5.50;99.90;;;;;;5078826;28;20503;-73
2024/02/20 04:35:24;;;;;;;47.67;7.50;;;5.50;99.90;;;;;;5085371;28;20093;-73
2024/02/20 04:38:08;;;;;;;47.65;7.70;;;5.50;99.90;;;;;;5088899;28;20043;-73
2024/02/20 04:40:57;;;;;;;54.25;9.27;;;5.50;99.90;;;;;;5065357;28;20170;-73
2024/02/20 04:43:46;;;;;;;41.53;7.80;;;5.50;99.90;;;;;;5069736;28;20035;-73
2024/02/20 04:46:31;;;;;;;59.95;8.18;;;5.50;99.90;;;;;;5067694;28;20442;-73
2024/02/20 04:49:15;;;;;;;56.58;8.70;;;5.40;99.90;;;;;;5078931;28;20185;-73
2024/02/20 04:52:02;;;;;;;46.10;8.93;;;5.40;99.90;;;;;;5080277;28;20114;-73
2024/02/20 04:54:46;;;;;;;44.03;8.27;;;5.40;99.90;;;;;;5064177;28;20039;-73
2024/02/20 04:57:31;;;;;;;38.83;8.75;;;5.40;99.90;;;;;;5084519;28;20092;-73
2024/02/20 05:00:15;;;;;;;49.08;8.57;;;5.40;99.90;;;;;;5085414;28;20093;-74
2024/02/20 05:03:05;;;;;;;45.33;8.25;;;5.40;99.90;;;;;;5063808;28;20097;-73
2024/02/20 05:05:53;;;;;;;53.88;8.63;;;5.40;99.90;;;;;;5065506;28;20050;-73
2024/02/20 05:08:37;;;;;;;54.33;8.60;;;5.40;99.90;;;;;;5068738;28;20044;-73
2024/02/20 05:11:22;;;;;;;48.63;8.27;;;5.50;99.90;;;;;;5062401;28;20097;-73
2024/02/20 05:14:06;;;;;;;51.58;8.95;;;5.50;99.90;;;;;;5062729;28;20541;-73
2024/02/20 05:16:50;;;;;;;49.38;7.90;;;5.40;99.90;;;;;;5062110;28;20073;-73
2024/02/20 05:19:16;;;;;;;51.88;9.18;;;5.50;99.90;;;;;;5047357;28;20489;-73
2024/02/20 05:21:42;;;;;;;60.38;9.38;;;5.50;99.90;;;;;;5049765;28;20052;-73
2024/02/20 05:24:07;;;;;;;53.08;8.32;;;5.50;99.90;;;;;;5041306;28;20044;-73
2024/02/20 05:26:33;;;;;;;60.00;9.02;;;5.50;99.90;;;;;;5054592;28;20267;-73
2024/02/20 05:28:59;;;;;;;59.17;9.57;;;5.60;99.90;;;;;;5054241;28;20094;-74
2024/02/20 05:31:29;;;;;;;62.97;9.40;;;5.60;99.90;;;;;;5043333;28;20181;-73
2024/02/20 05:34:00;;;;;;;42.55;8.80;;;5.60;99.90;;;;;;5052282;28;20052;-73
2024/02/20 05:36:26;;;;;;;;;;;5.60;99.90;;;;;;5040079;28;20048;-73
2024/02/20 05:38:52;;;;;;;54.47;8.25;;;5.60;99.90;;;;;;5058488;28;20470;-73
2024/02/20 05:41:19;;;;;;;59.55;8.95;;;5.60;99.90;;;;;;5052412;28;20054;-73
2024/02/20 05:43:45;;;;;;;59.08;10.48;;;5.60;99.90;;;;;;5056803;28;20071;-73
2024/02/20 05:46:11;;;;;;;54.35;8.55;;;5.70;99.90;;;;;;5042042;28;20576;-73
2024/02/20 05:48:37;;;;;;;52.08;8.45;;;5.70;99.90;;;;;;5062950;28;20033;-73
2024/02/20 05:51:03;;;;;;;56.88;9.00;;;5.70;99.90;;;;;;5058439;28;20051;-73
2024/02/20 05:53:29;;;;;;;49.78;9.82;;;5.70;99.90;;;;;;5056186;28;20040;-73
2024/02/20 05:55:55;;;;;;;47.00;8.68;;;5.70;99.90;;;;;;5058579;28;20048;-73
2024/02/20 05:58:20;;;;;;;49.72;8.68;;;5.80;99.90;;;;;;5032382;28;20102;-74
2024/02/20 06:00:46;;;;;;;54.60;10.02;;;5.70;99.90;;;;;;5053142;28;20041;-73
2024/02/20 06:03:12;;;;;;;45.65;9.25;;;5.80;99.90;;;;;;5032529;28;20562;-73
2024/02/20 06:05:38;;;;;;;46.80;8.95;;;5.80;99.90;;;;;;5048404;28;21258;-73
2024/02/20 06:08:04;;;;;;;42.72;8.68;;;5.80;99.90;;;;;;5061407;28;20044;-73
2024/02/20 06:10:30;;;;;;;49.70;9.30;;;5.80;99.90;;;;;;5062784;28;20051;-73
2024/02/20 06:12:55;;;;;;;43.53;7.90;;;5.80;99.90;;;;;;5064249;28;20039;-73
2024/02/20 06:15:22;;;;;;;56.30;10.05;;;5.80;99.90;;;;;;5050807;28;20282;-73
2024/02/20 06:17:49;;;;;;;60.75;9.85;;;5.70;99.90;;;;;;5044440;28;20427;-73
2024/02/20 06:20:19;;;;;;;37.70;8.05;;;5.70;99.90;;;;;;5055946;28;20051;-73
2024/02/20 06:22:45;;;;;;;52.28;9.27;;;5.80;99.90;;;;;;5047499;28;20520;-73
2024/02/20 06:25:11;;;;;;;56.13;10.10;;;5.80;99.90;;;;;;5059840;28;20094;-73
2024/02/20 06:27:38;;;;;;;59.75;11.25;;;5.80;99.90;;;;;;5061680;28;20044;-73
2024/02/20 06:30:11;;;;;;;46.70;9.43;;;5.80;99.90;;;;;;5044872;28;20397;-74
2024/02/20 06:32:38;;;;;;;46.05;9.57;;;5.80;99.90;;;;;;5064041;28;20044;-73
2024/02/20 06:35:05;;;;;;;48.95;9.45;;;5.80;99.90;;;;;;5041474;28;20329;-73
2024/02/20 06:37:34;;;;;;;59.88;10.07;;;5.80;99.90;;;;;;5044276;28;20048;-73
2024/02/20 06:40:00;;;;;;;52.00;9.93;;;5.90;99.90;;;;;;5041861;28;20029;-73
2024/02/20 06:42:29;;;;;;;42.65;9.32;;;5.80;99.90;;;;;;5063480;28;20040;-73
2024/02/20 06:44:55;;;;;;;47.72;9.13;;;5.90;99.90;;;;;;5047803;28;20148;-73
2024/02/20 06:47:21;;;;;;;50.22;10.60;;;5.90;99.90;;;;;;5044611;28;20052;-73
2024/02/20 06:49:47;;;;;;;47.15;8.98;;;5.90;99.90;;;;;;5051860;28;20048;-73
2024/02/20 06:52:13;;;;;;;49.47;9.93;;;5.90;99.90;;;;;;5066787;28;20110;-73
2024/02/20 06:54:39;;;;;;;53.17;11.02;;;6.00;99.90;;;;;;5052956;28;20056;-72
2024/02/20 06:57:05;;;;;;;47.20;9.35;;;6.00;99.90;;;;;;5066914;28;20059;-73
2024/02/20 06:59:31;;;;;;;46.22;8.98;;;6.00;99.90;;;;;;5043375;28;20036;-73
2024/02/20 07:01:57;;;;;;;44.08;8.77;;;6.00;99.90;;;;;;5046352;28;20401;-73
2024/02/20 07:04:22;;;;;;;39.47;9.35;;;6.00;99.90;;;;;;5056025;28;20055;-73
2024/02/20 07:06:48;;;;;;;39.88;8.60;;;6.00;99.90;;;;;;5071097;28;20055;-73
2024/02/20 07:09:14;;;;;;;48.22;9.57;;;6.20;99.90;;;;;;5067745;28;20082;-73
2024/02/20 07:11:46;;;;;;;42.20;9.10;;;6.10;99.90;;;;;;5039813;28;20036;-73
2024/02/20 07:14:11;;;;;;;46.20;9.02;;;6.10;99.90;;;;;;5066619;28;20132;-73
2024/02/20 07:16:38;;;;;;;40.75;8.88;;;6.10;99.90;;;;;;5058058;28;20166;-73
2024/02/20 07:19:05;;;;;;;50.05;9.07;;;6.20;99.90;;;;;;5059065;28;20040;-73
2024/02/20 07:21:31;;;;;;;43.58;8.55;;;6.20;99.90;;;;;;5058385;28;20048;-73
2024/02/20 07:23:56;;;;;;;48.90;10.30;;;6.30;99.90;;;;;;5036530;28;20492;-73
2024/02/20 07:26:28;;;;;;;48.90;10.05;;;6.30;99.90;;;;;;5037258;28;20481;-73
2024/02/20 07:28:55;;;;;;;45.95;9.48;;;6.30;99.90;;;;;;5064035;28;20127;-73
2024/02/20 07:31:25;;;;;;;43.28;9.40;;;6.40;99.90;;;;;;5038793;28;20039;-73
2024/02/20 07:33:52;;;;;;;48.43;8.73;;;6.40;99.90;;;;;;5061370;28;20032;-73
2024/02/20 07:36:17;;;;;;;42.67;8.57;;;6.40;99.90;;;;;;5059344;28;20301;-75
2024/02/20 07:38:44;;;;;;;47.53;9.52;;;6.50;99.90;;;;;;5063953;28;20042;-74
2024/02/20 07:41:10;;;;;;;42.58;8.77;;;6.50;99.90;;;;;;5042867;28;20052;-74
2024/02/20 07:43:36;;;;;;;45.00;8.73;;;6.50;99.90;;;;;;5054084;28;20491;-74
2024/02/20 07:46:05;;;;;;;52.35;9.75;;;6.60;99.90;;;;;;5053522;28;20048;-72
2024/02/20 07:48:30;;;;;;;47.55;8.38;;;6.60;99.90;;;;;;5066094;28;20044;-74
2024/02/20 07:50:56;;;;;;;43.17;8.32;;;6.60;99.90;;;;;;5051378;28;20488;-74
2024/02/20 07:53:22;;;;;;;43.75;8.80;;;6.60;99.90;;;;;;5055977;28;20048;-74
2024/02/20 07:55:48;;;;;;;46.55;9.25;;;6.60;99.90;;;;;;5054616;28;20039;-74
2024/02/20 07:58:13;;;;;;;51.10;8.98;;;6.70;99.90;;;;;;5037759;28;20040;-74
2024/02/20 08:00:39;;;;;;;45.20;8.63;;;6.70;99.90;;;;;;5043975;28;20043;-74
2024/02/20 08:03:05;;;;;;;48.75;9.50;;;6.70;99.90;;;;;;5059495;28;20040;-74
2024/02/20 08:05:31;;;;;;;47.33;8.25;;;6.80;99.90;;;;;;5039116;28;20454;-74
2024/02/20 08:07:56;;;;;;;41.20;8.15;;;6.80;99.90;;;;;;5061934;28;20047;-74
2024/02/20 08:10:22;;;;;;;40.58;8.93;;;6.80;99.90;;;;;;5062070;28;20059;-74
2024/02/20 08:12:48;;;;;;;41.00;8.13;;;6.80;99.90;;;;;;5036499;28;20039;-74
2024/02/20 08:15:14;;;;;;;41.35;9.73;;;6.90;99.90;;;;;;5052259;28;20400;-73
2024/02/20 08:17:43;;;;;;;38.95;9.23;;;6.90;99.90;;;;;;5051400;28;20416;-74
2024/02/20 08:20:09;;;;;;;39.53;8.88;;;6.90;99.90;;;;;;5053055;28;20040;-74
2024/02/20 08:22:35;;;;;;;45.47;8.65;;;6.90;99.90;;;;;;5054526;28;20047;-74
2024/02/20 08:25:04;;;;;;;48.45;9.50;;;7.00;99.90;;;;;;5056963;28;20049;-74
2024/02/20 08:27:30;;;;;;;45.83;9.80;;;7.00;99.90;;;;;;5039956;28;20039;-74
2024/02/20 08:29:56;;;;;;;43.15;9.18;;;7.00;99.90;;;;;;5046440;28;20500;-74
2024/02/20 08:32:21;;;;;;;51.30;9.77;;;7.00;99.90;;;;;;5054499;28;20330;-74
2024/02/20 08:34:48;;;;;;;43.55;9.38;;;7.10;99.90;;;;;;5047594;28;20052;-74
2024/02/20 08:37:14;;;;;;;45.33;10.38;;;7.10;99.90;;;;;;5041931;28;20097;-73
2024/02/20 08:39:40;;;;;;;43.95;9.98;;;7.10;99.90;;;;;;5040366;28;20040;-74
2024/02/20 08:42:05;;;;;;;47.92;10.15;;;7.20;99.90;;;;;;5039696;28;20048;-74
2024/02/20 08:44:31;;;;;;;42.10;9.40;;;7.20;99.90;;;;;;5047683;28;20408;-74
2024/02/20 08:46:57;;;;;;;41.50;10.00;;;7.20;99.90;;;;;;5055678;28;20182;-74
2024/02/20 08:49:23;;;;;;;42.42;10.50;;;7.30;99.90;;;;;;5058839;28;20198;-74
2024/02/20 08:51:49;;;;;;;47.10;11.15;;;7.40;99.90;;;;;;5042561;28;20093;-74
2024/02/20 08:54:17;;;;;;;54.42;12.23;;;7.40;99.90;;;;;;5053516;28;20599;-74
2024/02/20 08:56:43;;;;;;;40.85;11.75;;;7.50;99.90;;;;;;5059079;28;20036;-74
2024/02/20 08:59:09;;;;;;;44.70;11.95;;;7.50;99.90;;;;;;5058404;28;20428;-74
2024/02/20 09:01:37;;;;;;;50.03;11.88;;;7.60;99.90;;;;;;5054972;28;20484;-74
2024/02/20 09:04:03;;;;;;;43.75;12.60;;;7.70;99.90;;;;;;5047915;28;20090;-74
2024/02/20 09:06:29;;;;;;;52.47;13.93;;;7.80;99.90;;;;;;5065326;28;20047;-74
2024/02/20 09:08:55;;;;;;;47.83;13.75;;;7.80;99.90;;;;;;5064806;28;20040;-74
2024/02/20 09:11:21;;;;;;;42.25;13.27;;;7.90;99.90;;;;;;5045744;28;20150;-74
2024/02/20 09:13:46;;;;;;;46.15;14.45;;;7.90;99.90;;;;;;5056005;28;20040;-74
2024/02/20 09:16:12;;;;;;;47.22;15.10;;;7.90;99.90;;;;;;5058599;28;20122;-73
2024/02/20 09:18:38;;;;;;;57.17;17.48;;;8.00;99.90;;;;;;5047937;28;20054;-74
2024/02/20 09:21:06;;;;;;;43.78;15.25;;;8.00;99.90;;;;;;5037997;28;20771;-74
2024/02/20 09:23:36;;;;;;;48.83;15.55;;;8.00;99.90;;;;;;5059836;28;20040;-73
2024/02/20 09:26:06;;;;;;;48.17;16.37;;;8.00;99.90;;;;;;5048190;28;20125;-74
2024/02/20 09:28:34;;;;;;;46.35;15.88;;;8.10;99.90;;;;;;5044261;28;20294;-74
2024/02/20 09:31:00;;;;;;;44.45;15.25;;;8.10;99.90;;;;;;5049740;28;20048;-74
2024/02/20 09:33:26;;;;;;;41.85;15.43;;;8.10;99.90;;;;;;5043247;28;20047;-74
2024/02/20 09:35:52;;;;;;;50.50;16.80;;;8.10;99.90;;;;;;5053024;28;20044;-75
2024/02/20 09:38:18;;;;;;;46.33;16.23;;;8.10;99.90;;;;;;5046284;28;20158;-74
2024/02/20 09:40:44;;;;;;;51.83;17.60;;;8.30;99.90;;;;;;5050162;28;20047;-74
2024/02/20 09:43:10;;;;;;;45.35;16.95;;;8.20;99.90;;;;;;5035223;28;20408;-74
2024/02/20 09:45:40;;;;;;;48.85;17.55;;;8.20;99.90;;;;;;5043139;28;20532;-74
2024/02/20 09:48:09;;;;;;;46.88;17.23;;;8.20;99.90;;;;;;5054993;28;20078;-74
2024/02/20 09:50:42;;;;;;;51.83;19.48;;;8.20;99.90;;;;;;5046655;28;20056;-74
2024/02/20 09:53:09;;;;;;;50.08;18.70;;;8.30;99.90;;;;;;5043545;28;20474;-74
2024/02/20 09:55:34;;;;;;;45.08;18.17;;;8.30;99.90;;;;;;5061312;28;20083;-73
2024/02/20 09:58:01;;;;;;;43.10;17.95;;;8.30;99.90;;;;;;5068852;28;20044;-74
2024/02/20 10:00:27;;;;;;;46.03;18.67;;;8.30;99.90;;;;;;5060217;28;20036;-74
2024/02/20 10:02:53;;;;;;;47.05;19.05;;;8.30;99.90;;;;;;5050167;28;20071;-74
2024/02/20 10:05:19;;;;;;;48.92;18.27;;;8.40;99.90;;;;;;5049868;28;20036;-74
2024/02/20 10:07:45;;;;;;;48.15;19.05;;;8.40;99.90;;;;;;5048405;28;20051;-74
2024/02/20 10:10:16;;;;;;;47.53;19.42;;;8.40;99.90;;;;;;5040136;28;20079;-74
2024/02/20 10:12:44;;;;;;;44.47;18.58;;;8.50;99.90;;;;;;5052707;28;20190;-74
2024/02/20 10:15:10;;;;;;;52.13;19.10;;;8.40;99.90;;;;;;5038003;28;20562;-74
2024/02/20 10:17:36;;;;;;;45.83;19.13;;;8.40;99.90;;;;;;5056822;28;20139;-74
2024/02/20 10:20:12;;;;;;;52.25;18.83;;;8.50;99.90;;;;;;5046187;28;20090;-73
2024/02/20 10:22:40;;;;;;;41.30;17.80;;;8.50;99.90;;;;;;5055906;28;20056;-73
2024/02/20 10:25:12;;;;;;;39.67;18.35;;;8.50;99.90;;;;;;5054572;28;20074;-73
2024/02/20 10:27:39;;;;;;;43.15;17.23;;;8.50;99.90;;;;;;5065910;28;20048;-74
2024/02/20 10:30:06;;;;;;;47.53;17.55;;;8.50;99.90;;;;;;5044887;28;20381;-74
2024/02/20 10:32:36;;;;;;;49.65;18.35;;;8.60;99.90;;;;;;5064463;28;20042;-74
2024/02/20 10:35:05;;;;;;;54.67;17.73;;;8.60;99.90;;;;;;5045694;28;20067;-74
2024/02/20 10:37:35;;;;;;;43.17;16.70;;;8.70;99.90;;;;;;5045018;28;20044;-73
2024/02/20 10:40:11;;;;;;;43.05;16.20;;;8.70;99.90;;;;;;5037215;28;20047;-73
2024/02/20 10:42:39;;;;;;;42.67;16.55;;;8.80;99.90;;;;;;5062655;28;20047;-74
2024/02/20 10:45:09;;;;;;;43.92;15.85;;;8.80;99.90;;;;;;5062247;28;20044;-74
2024/02/20 10:47:46;;;;;;;39.63;15.25;;;8.90;99.90;;;;;;5056308;28;20110;-74
2024/02/20 10:50:15;;;;;;;41.20;14.32;;;8.90;99.90;;;;;;5043909;28;20044;-74
2024/02/20 10:52:42;;;;;;;37.97;14.93;;;9.00;99.90;;;;;;5053598;28;20040;-74
2024/02/20 10:55:18;;;;;;;42.63;14.00;;;9.00;99.90;;;;;;5041848;28;20059;-73
2024/02/20 10:57:46;;;;;;;44.17;14.25;;;9.10;99.90;;;;;;5041763;28;20071;-73
2024/02/20 11:00:13;;;;;;;40.63;14.23;;;9.10;99.90;;;;;;5059475;28;20393;-73
2024/02/20 11:02:43;;;;;;;43.00;13.82;;;9.10;99.90;;;;;;5059050;28;20056;-73
2024/02/20 11:05:10;;;;;;;;;;;9.10;99.90;;;;;;5069094;28;20102;-74
2024/02/20 11:07:36;;;;;;;42.72;14.98;;;9.20;99.90;;;;;;5060418;28;19920;-73
2024/02/20 11:10:17;;;;;;;37.47;14.85;;;9.10;99.90;;;;;;5065244;28;20052;-74
2024/02/20 11:12:44;;;;;;;36.08;15.18;;;9.20;99.90;;;;;;5046450;28;20058;-74
2024/02/20 11:15:20;;;;;;;43.15;15.15;;;9.20;99.90;;;;;;5042180;28;20093;-74
2024/02/20 11:17:48;;;;;;;41.08;15.07;;;9.20;99.90;;;;;;5064154;28;20051;-74
2024/02/20 11:20:23;;;;;;;40.83;15.10;;;9.20;99.90;;;;;;5048511;28;20040;-74
2024/02/20 11:22:49;;;;;;;35.00;15.07;;;9.20;99.90;;;;;;5049064;28;20133;-74
2024/02/20 11:25:30;;;;;;;34.70;15.18;;;9.30;99.90;;;;;;5058672;28;20040;-74
2024/02/20 11:27:56;;;;;;;;;;;9.30;99.90;;;;;;5060541;28;20525;-74
2024/02/20 11:30:24;;;;;;;43.28;15.82;;;9.30;99.90;;;;;;5058868;28;19959;-74
2024/02/20 11:32:52;;;;;;;33.83;15.40;;;9.30;99.90;;;;;;5062512;28;20051;-74
2024/02/20 11:35:36;;;;;;;35.90;15.32;;;9.30;99.90;;;;;;5046249;28;20528;-74
2024/02/20 11:38:04;;;;;;;41.40;13.85;;;9.30;99.90;;;;;;5060087;28;20047;-74
2024/02/20 11:40:33;;;;;;;34.63;13.23;;;9.30;99.90;;;;;;5044248;28;20033;-74
2024/02/20 11:43:03;;;;;;;36.60;12.57;;;9.30;99.90;;;;;;5057604;28;20044;-74
2024/02/20 11:45:29;;;;;;;40.78;13.10;;;9.30;99.90;;;;;;5056947;28;20041;-74
2024/02/20 11:48:09;;;;;;;44.67;13.00;;;9.30;99.90;;;;;;5042522;28;20514;-74
2024/02/20 11:50:37;;;;;;;37.58;11.38;;;9.40;99.90;;;;;;5056579;28;20048;-74
2024/02/20 11:53:08;;;;;;;31.88;10.95;;;9.40;99.90;;;;;;5062982;28;20196;-74
2024/02/20 11:55:35;;;;;;;31.33;11.60;;;9.40;99.90;;;;;;5055911;28;20059;-74
2024/02/20 11:58:04;;;;;;;40.67;12.25;;;9.40;99.90;;;;;;5057331;28;20577;-74
2024/02/20 12:00:33;;;;;;;35.15;11.43;;;9.50;99.90;;;;;;5062660;28;20496;-75
2024/02/20 12:03:02;;;;;;;38.22;11.02;;;9.50;99.90;;;;;;5063723;28;20604;-74
2024/02/20 12:05:37;;;;;;;29.92;10.45;;;9.50;99.90;;;;;;5063822;28;20059;-73
2024/02/20 12:08:13;;;;;;;30.92;10.68;;;9.50;99.90;;;;;;5045967;28;20040;-74
2024/02/20 12:10:40;;;;;;;33.65;10.35;;;9.50;99.90;;;;;;5060998;28;20552;-74
2024/02/20 12:13:14;;;;;;;30.90;10.10;;;9.60;99.90;;;;;;5064454;28;20036;-74
2024/02/20 12:15:39;;;;;;;36.95;9.93;;;9.60;99.90;;;;;;5041256;28;20032;-74
2024/02/20 12:18:05;;;;;;;31.33;9.73;;;9.60;99.90;;;;;;5043188;28;20044;-74
2024/02/20 12:20:34;;;;;;;35.42;10.10;;;9.60;99.90;;;;;;5048984;28;20056;-74
2024/02/20 12:23:03;;;;;;;33.78;9.63;;;9.60;99.90;;;;;;5055446;28;20040;-74
2024/02/20 12:25:29;;;;;;;33.35;9.25;;;9.70;99.90;;;;;;5056595;28;20043;-74
2024/02/20 12:27:54;;;;;;;29.42;8.77;;;9.60;99.90;;;;;;5042273;28;20493;-73
2024/02/20 12:30:20;;;;;;;31.48;9.13;;;9.70;99.90;;;;;;5042321;28;20048;-73
2024/02/20 12:32:46;;;;;;;34.35;9.18;;;9.70;99.90;;;;;;5056084;28;20524;-74
2024/02/20 12:35:12;;;;;;;38.50;9.15;;;9.70;99.90;;;;;;5056018;28;20147;-73
2024/02/20 12:37:41;;;;;;;35.30;9.30;;;9.70;99.90;;;;;;5034359;28;20071;-73
2024/02/20 12:40:12;;;;;;;33.50;8.25;;;9.70;99.90;;;;;;5045255;28;20074;-74
2024/02/20 12:42:39;;;;;;;30.65;8.65;;;9.70;99.90;;;;;;5058298;28;20054;-74
2024/02/20 12:45:05;;;;;;;27.83;7.90;;;9.70;99.90;;;;;;5040990;28;20048;-74
2024/02/20 12:47:32;;;;;;;33.17;8.52;;;9.80;99.90;;;;;;5071874;28;20396;-74